createdAt,value
2018-02-10T00:01:31.859Z,38.38
2018-02-10T00:03:59.278Z,37.55
2018-02-10T00:06:26.773Z,36.60
2018-02-10T00:08:53.315Z,36.53
2018-02-10T00:11:19.796Z,34.85
2018-02-10T00:13:47.058Z,35.92
2018-02-10T00:16:14.273Z,35.22
2018-02-10T00:18:40.744Z,36.53
2018-02-10T00:21:07.271Z,38.92
2018-02-10T00:23:33.782Z,35.45
2018-02-10T00:26:00.312Z,37.13
2018-02-10T00:28:27.547Z,34.60
2018-02-10T00:30:54.091Z,34.45
2018-02-10T00:33:21.448Z,36.78
2018-02-10T00:35:47.940Z,33.67
2018-02-10T00:38:15.166Z,35.05
2018-02-10T00:40:41.666Z,33.35
2018-02-10T00:43:08.871Z,36.97
2018-02-10T00:45:35.332Z,37.00
2018-02-10T00:48:01.752Z,35.75
2018-02-10T00:50:28.251Z,36.50
2018-02-10T00:52:54.781Z,36.88
2018-02-10T00:55:21.474Z,35.85
2018-02-10T00:57:48.080Z,35.53
2018-02-10T01:00:14.540Z,36.40
2018-02-10T01:02:41.073Z,35.50
2018-02-10T01:05:07.562Z,35.28
2018-02-10T01:07:34.807Z,36.83
2018-02-10T01:10:01.371Z,38.28
2018-02-10T01:12:28.551Z,37.55
2018-02-10T01:14:55.820Z,37.75
2018-02-10T01:17:22.230Z,34.60
2018-02-10T01:19:48.804Z,36.38
2018-02-10T01:22:15.283Z,34.50
2018-02-10T01:24:41.812Z,34.20
2018-02-10T01:27:09.032Z,32.13
2018-02-10T01:29:35.574Z,33.40
2018-02-10T01:32:02.836Z,33.00
2018-02-10T01:34:29.288Z,34.40
2018-02-10T01:36:55.748Z,34.42
2018-02-10T01:39:22.216Z,34.33
2018-02-10T01:41:48.849Z,33.83
2018-02-10T01:44:15.423Z,35.85
2018-02-10T01:46:41.968Z,33.05
2018-02-10T01:49:08.524Z,33.80
2018-02-10T01:51:34.932Z,33.97
2018-02-10T01:54:02.258Z,34.78
2018-02-10T01:56:28.760Z,33.97
2018-02-10T01:58:55.194Z,34.58
2018-02-10T02:01:21.607Z,30.75
2018-02-10T02:03:48.089Z,34.00
2018-02-10T02:06:14.557Z,30.50
2018-02-10T02:08:41.836Z,34.05
2018-02-10T02:11:08.347Z,32.00
2018-02-10T02:13:34.803Z,33.65
2018-02-10T02:16:01.268Z,32.58
2018-02-10T02:18:27.863Z,35.00
2018-02-10T02:20:54.333Z,32.92
2018-02-10T02:23:20.796Z,32.53
2018-02-10T02:25:47.252Z,33.53
2018-02-10T02:28:13.758Z,33.85
2018-02-10T02:30:40.214Z,31.30
2018-02-10T02:33:06.775Z,33.67
2018-02-10T02:35:33.235Z,34.72
2018-02-10T02:37:59.712Z,32.30
2018-02-10T02:40:26.255Z,32.92
2018-02-10T02:42:52.818Z,31.25
2018-02-10T02:45:20.001Z,30.35
2018-02-10T02:47:47.236Z,32.95
2018-02-10T02:50:13.768Z,29.12
2018-02-10T02:52:40.248Z,29.63
2018-02-10T02:55:07.407Z,29.67
2018-02-10T02:57:33.920Z,30.83
2018-02-10T03:00:01.208Z,29.98
2018-02-10T03:02:27.844Z,32.38
2018-02-10T03:04:54.334Z,31.70
2018-02-10T03:07:21.557Z,30.27
2018-02-10T03:09:48.023Z,30.50
2018-02-10T03:12:14.568Z,32.60
2018-02-10T03:14:41.118Z,34.53
2018-02-10T03:17:07.959Z,31.92
2018-02-10T03:19:35.260Z,29.83
2018-02-10T03:22:02.481Z,30.37
2018-02-10T03:24:28.956Z,32.35
2018-02-10T03:26:56.136Z,29.27
2018-02-10T03:29:22.896Z,30.45
2018-02-10T03:31:49.317Z,29.85
2018-02-10T03:34:15.804Z,31.10
2018-02-10T03:36:42.982Z,31.20
2018-02-10T03:39:10.177Z,29.52
2018-02-10T03:41:36.691Z,30.80
2018-02-10T03:44:03.239Z,30.30
2018-02-10T03:46:30.560Z,28.73
2018-02-10T03:48:57.028Z,28.42
2018-02-10T03:51:23.545Z,27.90
2018-02-10T03:53:50.028Z,30.45
2018-02-10T03:56:16.560Z,33.00
2018-02-10T03:58:43.008Z,31.37
2018-02-10T04:01:10.920Z,32.03
2018-02-10T04:03:38.167Z,32.22
2018-02-10T04:06:05.449Z,32.33
2018-02-10T04:08:31.867Z,31.37
2018-02-10T04:10:58.293Z,31.80
2018-02-10T04:13:24.776Z,32.33
2018-02-10T04:15:52.012Z,30.80
2018-02-10T04:18:19.287Z,30.33
2018-02-10T04:20:45.775Z,29.17
2018-02-10T04:23:13.040Z,32.00
2018-02-10T04:25:40.280Z,31.48
2018-02-10T04:28:06.827Z,31.70
2018-02-10T04:30:33.347Z,28.58
2018-02-10T04:32:59.841Z,30.77
2018-02-10T04:35:26.364Z,30.42
2018-02-10T04:37:52.805Z,27.80
2018-02-10T04:40:19.274Z,31.20
2018-02-10T04:42:45.846Z,31.87
2018-02-10T04:45:13.057Z,32.20
2018-02-10T04:47:39.520Z,29.63
2018-02-10T04:50:05.967Z,31.70
2018-02-10T04:52:33.253Z,29.90
2018-02-10T04:54:59.782Z,29.37
2018-02-10T04:57:26.220Z,30.20
2018-02-10T04:59:52.659Z,30.67
2018-02-10T05:02:19.156Z,30.17
2018-02-10T05:04:46.404Z,28.08
2018-02-10T05:07:12.947Z,29.12
2018-02-10T05:09:39.373Z,30.45
2018-02-10T05:12:05.965Z,29.87
2018-02-10T05:14:32.456Z,29.70
2018-02-10T05:16:58.948Z,32.08
2018-02-10T05:19:25.450Z,29.20
2018-02-10T05:21:51.896Z,31.20
2018-02-10T05:24:18.380Z,30.10
2018-02-10T05:26:44.828Z,31.35
2018-02-10T05:29:11.300Z,30.12
2018-02-10T05:31:37.747Z,32.63
2018-02-10T05:34:04.285Z,34.75
2018-02-10T05:36:30.880Z,29.67
2018-02-10T05:38:58.112Z,31.25
2018-02-10T05:41:24.628Z,32.47
2018-02-10T05:43:51.093Z,31.25
2018-02-10T05:46:17.617Z,31.33
2018-02-10T05:48:44.084Z,29.42
2018-02-10T05:51:10.531Z,30.30
2018-02-10T05:53:36.978Z,30.00
2018-02-10T05:56:04.280Z,33.00
2018-02-10T05:58:31.468Z,29.45
2018-02-10T06:00:57.937Z,29.65
2018-02-10T06:03:24.383Z,31.37
2018-02-10T06:05:50.841Z,37.08
2018-02-10T06:08:17.301Z,31.87
2018-02-10T06:10:44.820Z,32.15
2018-02-10T06:13:11.236Z,35.50
2018-02-10T06:15:37.755Z,34.92
2018-02-10T06:18:04.252Z,34.05
2018-02-10T06:20:31.455Z,35.92
2018-02-10T06:22:57.976Z,32.72
2018-02-10T06:25:25.177Z,34.30
2018-02-10T06:27:51.692Z,33.92
2018-02-10T06:30:18.923Z,34.78
2018-02-10T06:32:45.585Z,35.20
2018-02-10T06:35:12.067Z,32.55
2018-02-10T06:37:38.604Z,33.75
2018-02-10T06:40:05.828Z,35.92
2018-02-10T06:42:32.359Z,38.63
2018-02-10T06:44:58.816Z,39.22
2018-02-10T06:47:25.267Z,41.05
2018-02-10T06:49:51.708Z,36.55
2018-02-10T06:52:18.191Z,38.40
2018-02-10T06:54:45.639Z,37.45
2018-02-10T06:57:12.089Z,35.63
2018-02-10T06:59:39.579Z,37.50
2018-02-10T07:02:06.071Z,35.67
2018-02-10T07:04:32.556Z,35.50
2018-02-10T07:06:58.988Z,34.80
2018-02-10T07:09:25.425Z,34.30
2018-02-10T07:11:51.987Z,35.05
2018-02-10T07:14:18.823Z,37.28
2018-02-10T07:16:45.233Z,37.20
2018-02-10T07:19:12.469Z,36.20
2018-02-10T07:21:39.006Z,37.67
2018-02-10T07:24:05.454Z,35.45
2018-02-10T07:26:31.972Z,32.15
2018-02-10T07:28:58.748Z,34.03
2018-02-10T07:31:25.193Z,34.70
2018-02-10T07:33:51.631Z,32.83
2018-02-10T07:36:18.085Z,34.45
2018-02-10T07:38:44.553Z,30.88
2018-02-10T07:41:10.945Z,32.55
2018-02-10T07:43:37.438Z,34.30
2018-02-10T07:46:03.864Z,36.03
2018-02-10T07:48:30.395Z,33.50
2018-02-10T07:50:56.888Z,37.47
2018-02-10T07:53:23.447Z,38.40
2018-02-10T07:55:49.953Z,35.05
2018-02-10T07:58:16.407Z,37.72
2018-02-10T08:00:42.847Z,34.00
2018-02-10T08:03:09.407Z,36.03
2018-02-10T08:05:35.833Z,32.92
2018-02-10T08:08:02.291Z,34.00
2018-02-10T08:10:28.745Z,34.58
2018-02-10T08:12:55.240Z,34.80
2018-02-10T09:31:14.140Z,30.85
2018-02-10T09:33:40.685Z,31.65
2018-02-10T09:36:07.095Z,30.30
2018-02-10T09:38:33.516Z,31.70
2018-02-10T09:40:59.978Z,33.53
2018-02-10T09:43:26.395Z,35.00
2018-02-10T09:45:53.630Z,37.17
2018-02-10T09:48:20.176Z,37.22
2018-02-10T09:50:46.571Z,33.65
2018-02-10T09:53:13.775Z,32.50
2018-02-10T09:55:40.208Z,31.23
2018-02-10T09:58:06.592Z,31.97
2018-02-10T10:00:33.028Z,31.87
2018-02-10T10:02:59.445Z,33.03
2018-02-10T10:05:25.873Z,30.73
2018-02-10T10:07:52.286Z,29.63
2018-02-10T10:10:18.663Z,32.17
2018-02-10T10:12:45.130Z,28.30
2018-02-10T10:15:11.623Z,29.77
2018-02-10T10:17:38.016Z,30.37
2018-02-10T10:20:04.497Z,26.42
2018-02-10T10:22:30.909Z,28.50
2018-02-10T10:24:57.381Z,26.47
2018-02-10T10:27:23.858Z,26.53
2018-02-10T10:29:50.372Z,29.33
2018-02-10T10:32:18.284Z,26.00
2018-02-10T10:34:44.685Z,27.50
2018-02-10T10:37:11.071Z,29.00
2018-02-10T10:39:37.471Z,27.20
2018-02-10T10:42:03.860Z,27.60
2018-02-10T10:44:30.258Z,28.93
2018-02-10T10:46:57.377Z,27.87
2018-02-10T10:49:23.779Z,28.73
2018-02-10T10:51:50.225Z,26.50
2018-02-10T10:54:16.640Z,29.00
2018-02-10T10:56:43.827Z,26.00
2018-02-10T10:59:11.015Z,27.60
2018-02-10T11:01:37.456Z,27.47
2018-02-10T11:04:04.021Z,24.80
2018-02-10T11:06:30.478Z,24.73
2018-02-10T11:08:56.908Z,25.77
2018-02-10T11:11:23.331Z,25.93
2018-02-10T11:13:49.795Z,31.20
2018-02-10T11:16:16.240Z,27.13
2018-02-10T11:18:42.662Z,24.60
2018-02-10T11:21:09.140Z,26.57
2018-02-10T11:23:35.576Z,34.17
2018-02-10T11:26:02.043Z,28.80
2018-02-10T11:28:28.472Z,25.43
2018-02-10T11:30:54.975Z,26.80
2018-02-10T11:33:21.540Z,27.20
2018-02-10T11:35:48.751Z,25.43
2018-02-10T11:38:15.164Z,24.60
2018-02-10T11:40:42.391Z,26.37
2018-02-10T11:43:08.791Z,25.90
2018-02-10T11:45:35.179Z,28.27
2018-02-10T11:48:01.563Z,34.83
2018-02-10T11:50:28.729Z,29.90
2018-02-10T11:52:55.860Z,27.90
2018-02-10T11:55:22.270Z,24.10
2018-02-10T11:57:48.726Z,27.47
2018-02-10T12:00:15.202Z,37.30
2018-02-10T12:02:42.461Z,33.53
2018-02-10T12:05:08.876Z,30.30
2018-02-10T12:07:35.280Z,32.97
2018-02-10T12:10:02.431Z,29.30
2018-02-10T12:12:28.833Z,34.27
2018-02-10T12:14:55.252Z,31.50
2018-02-10T12:17:22.375Z,27.00
2018-02-10T12:19:48.804Z,26.93
2018-02-10T12:22:15.193Z,33.33
2018-02-10T12:24:41.588Z,26.47
2018-02-10T12:27:07.939Z,30.37
2018-02-10T12:29:34.357Z,27.70
2018-02-10T12:32:00.768Z,24.43
2018-02-10T12:34:27.131Z,25.90
2018-02-10T12:36:53.500Z,27.77
2018-02-10T12:39:19.919Z,31.50
2018-02-10T12:41:46.296Z,26.43
2018-02-10T12:44:12.708Z,30.43
2018-02-10T12:46:39.889Z,27.40
2018-02-10T12:49:13.147Z,28.83
2018-02-10T12:51:40.280Z,30.27
2018-02-10T12:54:06.726Z,30.87
2018-02-10T12:56:33.110Z,35.40
2018-02-10T12:58:59.568Z,29.60
2018-02-10T13:01:25.962Z,30.23
2018-02-10T13:03:52.468Z,30.97
2018-02-10T13:06:18.852Z,31.23
2018-02-10T13:08:45.297Z,30.50
2018-02-10T13:11:11.755Z,30.40
2018-02-10T13:13:38.143Z,29.47
2018-02-10T13:16:05.254Z,30.37
2018-02-10T13:18:31.644Z,31.60
2018-02-10T13:20:58.059Z,29.90
2018-02-10T13:23:24.495Z,29.90
2018-02-10T13:25:50.879Z,30.10
2018-02-10T13:28:17.318Z,30.53
2018-02-10T13:30:43.720Z,31.23
2018-02-10T13:33:11.169Z,31.47
2018-02-10T13:35:37.673Z,31.00
2018-02-10T13:38:04.122Z,31.13
2018-02-10T13:40:30.530Z,30.33
2018-02-10T13:42:57.747Z,30.37
2018-02-10T13:45:24.163Z,28.10
2018-02-10T13:47:50.680Z,30.53
2018-02-10T13:50:17.159Z,28.17
2018-02-10T13:52:43.613Z,28.60
2018-02-10T13:55:09.996Z,30.07
2018-02-10T13:57:36.515Z,30.27
2018-02-10T14:00:02.943Z,28.47
2018-02-10T14:02:29.503Z,29.00
2018-02-10T14:04:55.980Z,29.60
2018-02-10T14:07:22.383Z,29.50
2018-02-10T14:09:48.848Z,31.10
2018-02-10T14:12:15.679Z,29.93
2018-02-10T14:14:42.572Z,29.47
2018-02-10T14:17:08.962Z,29.30
2018-02-10T14:19:35.351Z,29.43
2018-02-10T14:22:01.798Z,30.67
2018-02-10T14:24:28.285Z,32.27
2018-02-10T14:26:54.723Z,29.37
2018-02-10T14:29:21.146Z,30.17
2018-02-10T14:31:47.597Z,30.77
2018-02-10T14:34:14.038Z,30.73
2018-02-10T14:36:40.495Z,30.30
2018-02-10T14:39:06.949Z,31.27
2018-02-10T14:41:33.360Z,31.40
2018-02-10T14:44:00.571Z,28.60
2018-02-10T14:46:27.003Z,29.27
2018-02-10T14:48:53.480Z,31.20
2018-02-10T14:51:19.888Z,29.80
2018-02-10T14:53:46.323Z,30.33
2018-02-10T14:56:12.732Z,29.20
2018-02-10T14:58:39.137Z,28.80
2018-02-10T15:01:05.505Z,35.70
2018-02-10T15:03:31.927Z,31.37
2018-02-10T15:05:58.383Z,30.80
2018-02-10T15:08:24.852Z,36.13
2018-02-10T15:10:51.372Z,43.13
2018-02-10T15:13:17.851Z,30.37
2018-02-10T15:15:44.260Z,31.00
2018-02-10T15:18:10.727Z,31.10
2018-02-10T15:20:37.135Z,29.37
2018-02-10T15:23:03.682Z,37.45
2018-02-10T15:25:30.177Z,32.43
2018-02-10T15:27:56.700Z,32.37
2018-02-10T15:30:35.510Z,31.47
2018-02-10T15:33:15.108Z,28.53
2018-02-10T15:35:41.530Z,31.03
2018-02-10T15:38:07.957Z,33.00
2018-02-10T15:40:35.119Z,38.17
2018-02-10T15:43:02.317Z,31.33
2018-02-10T15:45:29.818Z,41.77
2018-02-10T15:47:56.275Z,36.83
2018-02-10T15:50:23.732Z,30.30
2018-02-10T15:52:51.015Z,29.77
2018-02-10T15:55:17.452Z,35.70
2018-02-10T15:57:43.891Z,30.63
2018-02-10T16:00:10.304Z,35.23
2018-02-10T16:02:36.776Z,33.57
2018-02-10T16:05:03.216Z,30.70
2018-02-10T16:07:29.755Z,36.03
2018-02-10T16:09:56.228Z,32.80
2018-02-10T16:12:22.744Z,33.83
2018-02-10T16:14:49.940Z,32.93
2018-02-10T16:17:16.440Z,35.57
2018-02-10T16:19:42.871Z,33.60
2018-02-10T16:22:09.372Z,34.13
2018-02-10T16:24:35.828Z,31.20
2018-02-10T16:27:02.254Z,40.57
2018-02-10T16:29:28.727Z,40.90
2018-02-10T16:31:55.153Z,36.57
2018-02-10T16:34:21.613Z,33.43
2018-02-10T16:36:48.047Z,35.67
2018-02-10T16:39:14.533Z,35.80
2018-02-10T16:41:40.940Z,35.43
2018-02-10T16:44:07.432Z,34.57
2018-02-10T16:46:33.822Z,32.57
2018-02-10T16:49:00.980Z,35.33
2018-02-10T16:51:28.144Z,32.93
2018-02-10T16:53:54.629Z,31.63
2018-02-10T16:56:21.101Z,33.70
2018-02-10T16:58:49.017Z,34.23
2018-02-10T17:01:16.223Z,33.03
2018-02-10T17:03:42.660Z,31.70
2018-02-10T17:06:09.103Z,33.97
2018-02-10T17:08:35.560Z,32.70
2018-02-10T17:11:01.981Z,32.07
2018-02-10T17:13:28.415Z,31.57
2018-02-10T17:15:55.672Z,33.93
2018-02-10T17:18:22.181Z,32.90
2018-02-10T17:20:48.662Z,32.53
2018-02-10T17:23:15.173Z,40.67
2018-02-10T17:25:41.588Z,33.80
2018-02-10T17:28:08.058Z,36.23
2018-02-10T17:30:34.483Z,46.73
2018-02-10T17:33:00.956Z,34.20
2018-02-10T17:35:27.390Z,30.83
2018-02-10T17:37:53.860Z,37.30
2018-02-10T17:40:20.306Z,30.67
2018-02-10T17:42:46.743Z,32.50
2018-02-10T17:45:13.170Z,30.77
2018-02-10T17:47:39.651Z,32.50
2018-02-10T17:50:06.099Z,37.43
2018-02-10T17:52:32.558Z,36.10
2018-02-10T17:54:59.019Z,34.90
2018-02-10T17:57:25.576Z,33.17
2018-02-10T17:59:52.058Z,32.40
2018-02-10T18:02:18.541Z,44.10
2018-02-10T18:04:44.940Z,31.77
2018-02-10T18:07:12.134Z,34.53
2018-02-10T18:09:38.604Z,35.90
2018-02-10T18:12:06.078Z,34.93
2018-02-10T18:14:32.552Z,34.13
2018-02-10T18:16:59.045Z,31.60
2018-02-10T18:19:25.513Z,33.27
2018-02-10T18:21:51.963Z,32.50
2018-02-10T18:24:18.379Z,32.83
2018-02-10T18:26:44.897Z,31.25
2018-02-10T18:29:11.301Z,31.30
2018-02-10T18:31:37.796Z,31.27
2018-02-10T18:34:04.306Z,30.73
2018-02-10T18:36:30.760Z,30.27
2018-02-10T18:38:57.187Z,31.10
2018-02-10T18:41:23.627Z,48.90
2018-02-10T18:43:50.129Z,34.10
2018-02-10T18:46:16.635Z,30.67
2018-02-10T18:48:43.044Z,40.73
2018-02-10T18:51:10.236Z,35.30
2018-02-10T18:53:36.717Z,37.50
2018-02-10T18:56:03.252Z,32.50
2018-02-10T18:58:29.961Z,34.20
2018-02-10T19:00:57.191Z,29.87
2018-02-10T19:03:23.722Z,32.03
2018-02-10T19:05:50.176Z,31.73
2018-02-10T19:08:17.496Z,31.80
2018-02-10T19:10:44.060Z,33.23
2018-02-10T19:13:10.488Z,29.93
2018-02-10T19:15:37.700Z,33.30
2018-02-10T19:18:04.116Z,30.57
2018-02-10T19:20:30.591Z,32.27
2018-02-10T19:22:57.006Z,32.77
2018-02-10T19:25:24.190Z,30.87
2018-02-10T19:27:50.617Z,31.57
2018-02-10T19:30:17.096Z,30.20
2018-02-10T19:32:43.509Z,32.90
2018-02-10T19:35:10.204Z,29.30
2018-02-10T19:37:37.439Z,29.87
2018-02-10T19:40:03.913Z,30.90
2018-02-10T19:42:30.352Z,29.00
2018-02-10T19:44:56.806Z,29.93
2018-02-10T19:47:23.240Z,34.83
2018-02-10T19:49:49.720Z,35.03
2018-02-10T19:52:16.241Z,29.60
2018-02-10T19:54:42.731Z,31.17
2018-02-10T19:57:09.212Z,30.80
2018-02-10T19:59:35.663Z,32.38
2018-02-10T20:02:02.131Z,30.37
2018-02-10T20:04:28.601Z,31.60
2018-02-10T20:06:55.012Z,32.30
2018-02-10T20:09:21.432Z,27.27
2018-02-10T20:11:48.617Z,29.67
2018-02-10T20:14:15.104Z,29.50
2018-02-10T20:16:41.528Z,33.57
2018-02-10T20:19:07.988Z,32.80
2018-02-10T20:21:34.430Z,29.60
2018-02-10T20:24:00.883Z,30.50
2018-02-10T20:26:27.294Z,31.37
2018-02-10T20:28:53.776Z,30.23
2018-02-10T20:31:20.200Z,32.80
2018-02-10T20:33:46.656Z,28.90
2018-02-10T20:36:13.096Z,27.67
2018-02-10T20:38:39.557Z,28.87
2018-02-10T20:41:06.000Z,27.27
2018-02-10T20:43:32.448Z,29.27
2018-02-10T20:45:58.939Z,28.30
2018-02-10T20:48:26.164Z,28.20
2018-02-10T20:50:52.557Z,29.87
2018-02-10T20:53:19.064Z,29.13
2018-02-10T20:55:46.352Z,26.90
2018-02-10T20:58:12.816Z,28.37
2018-02-10T21:00:39.956Z,27.07
2018-02-10T21:03:06.412Z,29.63
2018-02-10T21:05:32.852Z,26.13
2018-02-10T21:07:59.309Z,28.00
2018-02-10T21:10:25.824Z,27.20
2018-02-10T21:12:52.280Z,26.10
2018-02-10T21:15:18.702Z,26.20
2018-02-10T21:17:45.232Z,28.10
2018-02-10T21:20:12.448Z,25.17
2018-02-10T21:22:38.907Z,27.93
2018-02-10T21:25:05.489Z,28.67
2018-02-10T21:27:32.718Z,29.33
2018-02-10T21:29:59.167Z,26.30
2018-02-10T21:32:25.604Z,26.03
2018-02-10T21:34:52.059Z,28.03
2018-02-10T21:37:18.528Z,26.60
2018-02-10T21:39:45.032Z,27.93
2018-02-10T21:42:11.456Z,28.53
2018-02-10T21:44:38.359Z,27.77
2018-02-10T21:47:04.815Z,26.70
2018-02-10T21:49:31.224Z,29.80
2018-02-10T21:51:57.716Z,28.50
2018-02-10T21:54:24.106Z,30.20
2018-02-10T21:56:51.311Z,27.83
2018-02-10T21:59:17.724Z,29.43
2018-02-10T22:01:44.215Z,35.27
2018-02-10T22:04:11.499Z,28.33
2018-02-10T22:06:38.030Z,36.60
2018-02-10T22:09:06.256Z,30.60
2018-02-10T22:11:33.528Z,27.23
2018-02-10T22:14:00.718Z,28.07
2018-02-10T22:16:27.176Z,26.50
2018-02-10T22:18:53.655Z,25.23
2018-02-10T23:43:16.536Z,24.03
2018-02-10T23:45:43.060Z,28.48
2018-02-10T23:48:09.527Z,28.20
2018-02-10T23:50:36.100Z,25.57
2018-02-10T23:53:03.320Z,24.85
2018-02-10T23:55:29.784Z,27.77
2018-02-10T23:57:56.313Z,24.20
